createdAt,value
2022-12-31T00:00:26.951Z,17.19
2022-12-31T00:01:29.468Z,22.65
2022-12-31T00:02:32.162Z,15.31
2022-12-31T00:03:34.867Z,21.06
2022-12-31T00:04:37.464Z,18.27
2022-12-31T00:05:40.010Z,21.01
2022-12-31T00:06:42.755Z,23.19
2022-12-31T00:07:45.326Z,17.18
2022-12-31T00:08:47.891Z,26.37
2022-12-31T00:09:50.435Z,17.44
2022-12-31T00:10:53.174Z,21.13
2022-12-31T00:11:55.716Z,20.59
2022-12-31T00:12:58.284Z,20.54
2022-12-31T00:14:00.818Z,10.90
2022-12-31T00:15:03.364Z,23.49
2022-12-31T00:16:11.755Z,24.37
2022-12-31T00:17:10.691Z,26.84
2022-12-31T00:18:13.427Z,28.28
2022-12-31T00:19:15.962Z,21.87
2022-12-31T00:20:18.996Z,16.27
2022-12-31T00:21:21.642Z,20.17
2022-12-31T00:22:24.156Z,18.25
2022-12-31T00:23:26.756Z,15.88
2022-12-31T00:24:29.268Z,18.99
2022-12-31T00:25:31.784Z,13.27
2022-12-31T00:26:34.453Z,18.40
2022-12-31T00:27:36.947Z,18.30
2022-12-31T00:28:39.533Z,20.41
2022-12-31T00:29:42.337Z,16.27
2022-12-31T00:30:45.097Z,18.34
2022-12-31T00:31:47.610Z,21.87
2022-12-31T00:32:50.141Z,25.71
2022-12-31T00:33:52.706Z,15.37
2022-12-31T00:34:55.256Z,16.26
2022-12-31T00:35:57.804Z,15.33
2022-12-31T00:37:00.554Z,20.54
2022-12-31T00:38:03.088Z,20.19
2022-12-31T00:39:05.648Z,25.61
2022-12-31T00:40:08.475Z,20.17
2022-12-31T00:41:11.002Z,20.48
2022-12-31T00:42:13.498Z,18.68
2022-12-31T00:43:16.033Z,11.25
2022-12-31T00:44:18.614Z,16.79
2022-12-31T00:45:21.148Z,15.50
2022-12-31T00:46:24.070Z,18.61
2022-12-31T00:47:26.593Z,21.62
2022-12-31T00:48:29.126Z,24.76
2022-12-31T00:49:31.682Z,16.80
2022-12-31T00:50:34.355Z,19.73
2022-12-31T00:51:36.907Z,22.09
2022-12-31T00:52:39.446Z,20.67
2022-12-31T00:53:41.988Z,19.65
2022-12-31T00:54:44.558Z,23.23
2022-12-31T00:55:47.122Z,19.05
2022-12-31T00:56:49.702Z,19.93
2022-12-31T00:57:52.226Z,25.42
2022-12-31T00:58:54.775Z,19.56
2022-12-31T00:59:57.369Z,28.56
2022-12-31T01:01:00.072Z,24.52
2022-12-31T01:02:02.837Z,18.85
2022-12-31T01:03:05.758Z,18.39
2022-12-31T01:04:08.423Z,19.06
2022-12-31T01:05:11.001Z,21.36
2022-12-31T01:06:14.990Z,22.54
2022-12-31T01:07:17.520Z,21.88
2022-12-31T01:08:20.053Z,25.50
2022-12-31T01:09:22.501Z,24.88
2022-12-31T01:10:25.376Z,21.74
2022-12-31T01:11:27.923Z,27.25
2022-12-31T01:12:30.762Z,24.44
2022-12-31T01:13:33.328Z,23.83
2022-12-31T01:14:35.860Z,21.85
2022-12-31T01:15:38.468Z,20.91
2022-12-31T01:16:41.292Z,21.71
2022-12-31T01:17:43.833Z,17.49
2022-12-31T01:18:46.396Z,24.55
2022-12-31T01:19:48.952Z,18.71
2022-12-31T01:20:52.075Z,16.35
2022-12-31T01:21:54.620Z,22.62
2022-12-31T01:22:57.142Z,20.75
2022-12-31T01:23:59.685Z,23.52
2022-12-31T01:25:02.218Z,22.69
2022-12-31T01:26:05.036Z,23.61
2022-12-31T01:27:07.591Z,23.69
2022-12-31T01:28:10.110Z,18.44
2022-12-31T01:29:12.662Z,26.02
2022-12-31T01:30:16.655Z,22.45
2022-12-31T01:31:19.305Z,21.71
2022-12-31T01:32:21.976Z,20.85
2022-12-31T01:33:24.616Z,21.91
2022-12-31T01:34:27.154Z,24.17
2022-12-31T01:35:29.889Z,26.79
2022-12-31T01:36:32.641Z,21.37
2022-12-31T01:37:35.169Z,21.81
2022-12-31T01:38:37.704Z,24.01
2022-12-31T01:39:40.234Z,23.71
2022-12-31T01:40:43.028Z,22.66
2022-12-31T01:41:45.639Z,17.88
2022-12-31T01:42:48.155Z,17.66
2022-12-31T01:43:50.633Z,29.23
2022-12-31T01:44:53.170Z,23.40
2022-12-31T01:45:55.718Z,18.26
2022-12-31T01:46:58.518Z,21.67
2022-12-31T01:48:01.017Z,19.60
2022-12-31T01:49:03.576Z,25.69
2022-12-31T01:50:06.405Z,23.03
2022-12-31T01:51:08.938Z,26.32
2022-12-31T01:52:11.528Z,23.53
2022-12-31T01:53:14.050Z,28.45
2022-12-31T01:54:16.793Z,21.33
2022-12-31T01:55:19.335Z,24.15
2022-12-31T01:56:22.177Z,21.74
2022-12-31T01:57:24.737Z,29.17
2022-12-31T01:58:27.264Z,23.76
2022-12-31T01:59:29.811Z,24.87
2022-12-31T02:00:32.850Z,23.73
2022-12-31T02:01:37.208Z,24.04
2022-12-31T02:02:40.077Z,22.51
2022-12-31T02:03:42.971Z,24.72
2022-12-31T02:04:45.504Z,22.23
2022-12-31T02:05:48.051Z,27.18
2022-12-31T02:06:50.693Z,22.31
2022-12-31T02:07:53.312Z,23.73
2022-12-31T02:08:55.830Z,22.91
2022-12-31T02:09:58.362Z,25.17
2022-12-31T02:11:01.073Z,24.16
2022-12-31T02:12:03.651Z,28.55
2022-12-31T02:13:06.255Z,19.95
2022-12-31T02:14:08.798Z,27.98
2022-12-31T02:15:11.385Z,23.74
2022-12-31T02:16:14.498Z,21.99
2022-12-31T02:17:17.382Z,29.88
2022-12-31T02:18:19.966Z,26.31
2022-12-31T02:19:22.506Z,26.20
2022-12-31T02:20:25.402Z,29.92
2022-12-31T02:21:28.340Z,27.77
2022-12-31T02:22:30.876Z,30.51
2022-12-31T02:23:33.759Z,25.00
2022-12-31T02:24:36.298Z,27.17
2022-12-31T02:25:38.831Z,22.94
2022-12-31T02:26:41.665Z,30.84
2022-12-31T02:27:44.307Z,20.97
2022-12-31T02:28:46.885Z,26.14
2022-12-31T02:29:49.414Z,23.52
2022-12-31T02:30:52.106Z,31.21
2022-12-31T02:31:54.611Z,27.09
2022-12-31T02:32:57.151Z,24.51
2022-12-31T02:33:59.744Z,22.05
2022-12-31T02:35:02.290Z,25.11
2022-12-31T02:36:04.828Z,27.63
2022-12-31T02:37:07.377Z,26.43
2022-12-31T02:38:09.909Z,25.46
2022-12-31T02:39:12.488Z,23.50
2022-12-31T02:40:16.780Z,27.82
2022-12-31T02:41:19.346Z,31.53
2022-12-31T02:42:21.890Z,33.49
2022-12-31T02:43:24.416Z,26.96
2022-12-31T02:44:26.982Z,25.72
2022-12-31T02:45:29.551Z,22.69
2022-12-31T02:46:32.493Z,26.21
2022-12-31T02:47:35.116Z,20.67
2022-12-31T02:48:37.650Z,26.13
2022-12-31T02:49:40.217Z,31.06
2022-12-31T02:50:43.060Z,32.20
2022-12-31T02:51:45.593Z,28.51
2022-12-31T02:52:48.134Z,29.03
2022-12-31T02:53:50.684Z,31.13
2022-12-31T02:54:53.326Z,25.34
2022-12-31T02:55:55.900Z,26.19
2022-12-31T02:56:58.790Z,25.72
2022-12-31T02:58:01.422Z,28.41
2022-12-31T02:59:03.933Z,30.48
2022-12-31T03:00:06.819Z,30.91
2022-12-31T03:01:09.439Z,33.49
2022-12-31T03:02:12.227Z,30.62
2022-12-31T03:03:14.887Z,30.77
2022-12-31T03:04:17.424Z,30.29
2022-12-31T03:05:19.998Z,33.61
2022-12-31T03:06:23.054Z,29.77
2022-12-31T03:07:25.571Z,24.15
2022-12-31T03:08:28.108Z,28.54
2022-12-31T03:09:30.730Z,31.01
2022-12-31T03:10:33.496Z,27.23
2022-12-31T03:11:36.129Z,30.77
2022-12-31T03:12:38.880Z,28.03
2022-12-31T03:13:41.449Z,35.89
2022-12-31T03:14:43.999Z,29.43
2022-12-31T03:15:46.580Z,30.43
2022-12-31T03:16:49.229Z,26.33
2022-12-31T03:17:51.787Z,31.42
2022-12-31T03:18:54.321Z,34.41
2022-12-31T03:19:56.875Z,31.96
2022-12-31T03:20:59.651Z,33.10
2022-12-31T03:22:02.192Z,30.93
2022-12-31T03:23:04.745Z,30.74
2022-12-31T03:24:07.298Z,30.32
2022-12-31T03:25:09.869Z,31.50
2022-12-31T03:26:13.173Z,30.23
2022-12-31T03:27:15.715Z,30.78
2022-12-31T03:28:18.253Z,30.92
2022-12-31T03:29:20.807Z,30.23
2022-12-31T03:30:23.564Z,34.02
2022-12-31T03:31:26.185Z,32.35
2022-12-31T03:32:28.688Z,35.12
2022-12-31T03:33:31.336Z,35.45
2022-12-31T03:34:33.883Z,27.43
2022-12-31T03:35:36.472Z,32.89
2022-12-31T03:36:39.305Z,30.69
2022-12-31T03:37:41.991Z,35.26
2022-12-31T03:38:48.485Z,33.29
2022-12-31T03:39:48.879Z,32.32
2022-12-31T03:40:51.477Z,26.23
2022-12-31T03:41:53.951Z,28.91
2022-12-31T03:42:56.507Z,32.49
2022-12-31T03:43:59.027Z,32.85
2022-12-31T03:45:01.561Z,30.40
2022-12-31T03:46:04.257Z,33.34
2022-12-31T03:47:06.978Z,32.36
2022-12-31T03:48:09.542Z,29.00
2022-12-31T03:49:12.070Z,30.67
2022-12-31T03:50:14.920Z,28.08
2022-12-31T03:51:17.461Z,28.53
2022-12-31T03:52:20.040Z,42.78
2022-12-31T03:53:22.610Z,27.85
2022-12-31T03:54:25.113Z,31.63
2022-12-31T03:55:27.950Z,30.82
2022-12-31T03:56:30.594Z,34.59
2022-12-31T03:57:33.358Z,32.22
2022-12-31T03:58:36.204Z,31.69
2022-12-31T03:59:38.959Z,37.37
2022-12-31T04:00:41.646Z,29.56
2022-12-31T04:01:44.300Z,35.21
2022-12-31T04:02:47.118Z,25.21
2022-12-31T04:03:49.979Z,30.16
2022-12-31T04:04:52.517Z,30.53
2022-12-31T04:05:55.071Z,33.05
2022-12-31T04:06:57.896Z,29.48
2022-12-31T04:08:00.615Z,36.35
2022-12-31T04:09:03.117Z,34.21
2022-12-31T04:10:05.950Z,27.28
2022-12-31T04:11:08.475Z,35.74
2022-12-31T04:12:11.008Z,34.25
2022-12-31T04:13:13.484Z,34.98
2022-12-31T04:14:16.009Z,33.94
2022-12-31T04:15:18.585Z,27.81
2022-12-31T04:16:21.393Z,32.14
2022-12-31T04:17:24.047Z,33.70
2022-12-31T04:18:26.610Z,35.48
2022-12-31T04:19:29.178Z,33.59
2022-12-31T04:20:31.821Z,32.35
2022-12-31T04:21:35.329Z,35.55
2022-12-31T04:22:38.009Z,40.11
2022-12-31T04:23:40.610Z,38.91
2022-12-31T04:24:43.173Z,40.74
2022-12-31T04:25:45.735Z,39.28
2022-12-31T04:26:48.667Z,34.40
2022-12-31T04:27:51.249Z,36.25
2022-12-31T04:28:54.057Z,33.31
2022-12-31T04:29:56.644Z,32.60
2022-12-31T04:30:59.275Z,36.09
2022-12-31T04:32:01.869Z,31.51
2022-12-31T04:33:04.445Z,40.56
2022-12-31T04:34:07.007Z,38.91
2022-12-31T04:35:09.587Z,37.49
2022-12-31T04:36:13.625Z,25.36
2022-12-31T04:37:16.165Z,29.91
2022-12-31T04:38:18.701Z,34.51
2022-12-31T04:39:21.260Z,33.02
2022-12-31T04:40:23.800Z,37.50
2022-12-31T04:41:26.330Z,27.93
2022-12-31T04:42:28.867Z,34.60
2022-12-31T04:43:31.413Z,26.87
2022-12-31T04:44:33.982Z,31.49
2022-12-31T04:45:36.580Z,33.01
2022-12-31T04:46:39.703Z,33.51
2022-12-31T04:47:42.347Z,21.35
2022-12-31T04:48:44.883Z,22.48
2022-12-31T04:49:47.443Z,30.99
2022-12-31T04:50:50.389Z,24.91
2022-12-31T04:51:52.921Z,32.67
2022-12-31T04:52:55.452Z,31.43
2022-12-31T04:53:57.993Z,28.05
2022-12-31T04:55:00.703Z,22.11
2022-12-31T04:56:03.375Z,19.07
2022-12-31T04:57:05.814Z,18.55
2022-12-31T04:58:08.752Z,24.09
2022-12-31T04:59:11.289Z,13.90
2022-12-31T05:00:14.082Z,19.38
2022-12-31T05:01:16.651Z,14.13
2022-12-31T05:02:19.527Z,19.10
2022-12-31T05:03:22.173Z,25.04
2022-12-31T05:04:24.747Z,21.67
2022-12-31T05:05:27.321Z,29.36
2022-12-31T05:06:30.085Z,16.81
2022-12-31T05:07:32.619Z,22.33
2022-12-31T05:08:35.157Z,25.94
2022-12-31T05:09:37.681Z,24.76
2022-12-31T05:10:40.449Z,25.78
2022-12-31T05:11:43.007Z,24.58
2022-12-31T05:12:45.534Z,26.33
2022-12-31T05:13:48.082Z,20.99
2022-12-31T05:14:50.652Z,24.63
2022-12-31T05:15:53.273Z,16.81
2022-12-31T05:16:55.852Z,18.02
2022-12-31T05:17:58.549Z,13.28
2022-12-31T05:19:01.093Z,21.63
2022-12-31T05:20:03.861Z,22.56
2022-12-31T05:21:06.402Z,21.91
2022-12-31T05:22:08.942Z,19.38
2022-12-31T05:23:11.578Z,22.28
2022-12-31T05:24:14.111Z,26.17
2022-12-31T05:25:16.899Z,21.96
2022-12-31T05:26:19.555Z,18.09
2022-12-31T05:27:22.086Z,22.33
2022-12-31T05:28:24.593Z,20.83
2022-12-31T05:29:27.139Z,20.07
2022-12-31T05:30:29.707Z,23.45
2022-12-31T05:31:32.595Z,19.68
2022-12-31T05:32:35.137Z,24.77
2022-12-31T05:33:37.678Z,19.15
2022-12-31T05:34:40.203Z,21.09
2022-12-31T05:35:42.736Z,20.52
2022-12-31T05:36:45.404Z,21.43
2022-12-31T05:37:47.932Z,20.56
2022-12-31T05:38:50.465Z,26.39
2022-12-31T05:39:53.002Z,22.13
2022-12-31T05:40:55.653Z,27.99
2022-12-31T05:41:58.226Z,18.00
2022-12-31T05:43:00.766Z,27.06
2022-12-31T05:44:04.418Z,19.11
2022-12-31T05:45:06.957Z,15.95
2022-12-31T05:46:10.332Z,26.36
2022-12-31T05:47:12.895Z,29.17
2022-12-31T05:48:15.463Z,27.61
2022-12-31T05:49:18.012Z,27.91
2022-12-31T05:50:20.654Z,30.01
2022-12-31T05:51:23.198Z,23.98
2022-12-31T05:52:25.752Z,27.76
2022-12-31T05:53:28.344Z,24.32
2022-12-31T05:54:30.847Z,24.83
2022-12-31T05:55:33.399Z,24.55
2022-12-31T05:56:36.048Z,25.45
2022-12-31T05:57:38.629Z,27.58
2022-12-31T05:58:41.182Z,22.55
2022-12-31T05:59:43.715Z,40.03
2022-12-31T06:00:46.448Z,28.26
2022-12-31T06:01:48.894Z,33.97
2022-12-31T06:02:51.833Z,29.51
2022-12-31T06:03:54.497Z,26.08
2022-12-31T06:04:57.070Z,30.03
2022-12-31T06:05:59.620Z,37.57
2022-12-31T06:07:02.154Z,31.55
2022-12-31T06:08:04.662Z,33.12
2022-12-31T06:09:07.219Z,36.74
2022-12-31T06:10:10.080Z,36.14
2022-12-31T06:11:12.612Z,37.84
2022-12-31T06:12:15.175Z,25.41
2022-12-31T06:13:17.782Z,35.69
2022-12-31T06:14:20.339Z,32.65
2022-12-31T06:15:22.855Z,25.12
2022-12-31T06:16:25.505Z,31.59
2022-12-31T06:17:28.133Z,31.47
2022-12-31T06:18:30.923Z,34.52
2022-12-31T06:19:33.455Z,46.85
2022-12-31T06:20:36.188Z,37.68
2022-12-31T06:21:38.621Z,30.47
2022-12-31T06:22:41.278Z,28.55
2022-12-31T06:23:43.894Z,18.17
2022-12-31T06:24:46.793Z,27.49
2022-12-31T06:25:49.307Z,35.48
2022-12-31T06:26:51.954Z,27.39
2022-12-31T06:27:54.502Z,30.27
2022-12-31T06:28:57.087Z,33.22
2022-12-31T06:29:59.648Z,31.41
2022-12-31T06:31:02.296Z,34.14
2022-12-31T06:32:04.990Z,33.96
2022-12-31T06:33:07.516Z,30.61
2022-12-31T06:34:10.006Z,21.21
2022-12-31T06:35:12.565Z,34.25
2022-12-31T06:36:15.666Z,34.75
2022-12-31T06:37:18.305Z,31.63
2022-12-31T06:38:20.904Z,40.19
2022-12-31T06:39:23.448Z,34.45
2022-12-31T06:40:26.285Z,32.02
2022-12-31T06:41:28.827Z,23.79
2022-12-31T06:42:31.409Z,31.67
2022-12-31T06:43:34.010Z,30.86
2022-12-31T06:44:36.592Z,26.26
2022-12-31T06:45:39.105Z,35.80
2022-12-31T06:46:41.807Z,29.67
2022-12-31T06:47:45.119Z,30.97
2022-12-31T06:48:47.718Z,27.08
2022-12-31T06:49:50.259Z,25.43
2022-12-31T06:50:52.984Z,28.95
2022-12-31T06:51:55.525Z,28.17
2022-12-31T06:52:58.060Z,29.47
2022-12-31T06:54:00.603Z,27.73
2022-12-31T06:55:03.212Z,23.08
2022-12-31T06:56:06.035Z,25.37
2022-12-31T06:57:08.571Z,25.79
2022-12-31T06:58:11.107Z,26.17
2022-12-31T06:59:13.693Z,29.23
2022-12-31T07:00:17.565Z,28.22
2022-12-31T07:01:20.205Z,28.76
2022-12-31T07:02:23.166Z,22.24
2022-12-31T07:03:26.064Z,25.58
2022-12-31T07:04:28.572Z,27.24
2022-12-31T07:05:31.178Z,20.89
2022-12-31T07:06:33.922Z,28.99
2022-12-31T07:07:36.450Z,22.72
2022-12-31T07:08:38.993Z,24.35
2022-12-31T07:09:41.532Z,25.33
2022-12-31T07:10:44.343Z,28.25
2022-12-31T07:11:46.867Z,22.09
2022-12-31T07:12:49.398Z,12.06
2022-12-31T07:13:51.943Z,18.21
2022-12-31T07:14:54.494Z,13.35
2022-12-31T07:15:57.129Z,17.41
2022-12-31T07:17:00.018Z,20.08
2022-12-31T07:18:02.556Z,22.15
2022-12-31T07:19:05.092Z,18.84
2022-12-31T07:20:08.637Z,15.68
2022-12-31T07:21:11.218Z,17.59
2022-12-31T07:22:13.760Z,21.14
2022-12-31T07:23:16.292Z,9.05
2022-12-31T07:24:18.844Z,19.51
2022-12-31T07:25:21.380Z,15.76
2022-12-31T07:26:24.045Z,19.88
2022-12-31T07:27:26.612Z,19.57
2022-12-31T07:28:29.138Z,17.43
2022-12-31T07:29:31.695Z,18.23
2022-12-31T07:30:34.445Z,17.17
2022-12-31T07:31:37.086Z,20.74
2022-12-31T07:32:39.795Z,20.46
2022-12-31T07:33:42.326Z,21.86
2022-12-31T07:34:44.877Z,22.72
2022-12-31T07:35:47.408Z,14.93
2022-12-31T07:36:50.521Z,17.55
2022-12-31T07:37:53.057Z,18.79
2022-12-31T07:38:55.612Z,14.62
2022-12-31T07:39:58.222Z,14.45
2022-12-31T07:41:07.460Z,14.39
2022-12-31T07:42:05.407Z,14.95
2022-12-31T07:43:07.919Z,14.39
2022-12-31T07:44:10.477Z,13.05
2022-12-31T07:45:13.213Z,11.80
2022-12-31T07:46:17.504Z,14.39
2022-12-31T07:47:20.219Z,14.45
2022-12-31T07:48:22.756Z,15.27
2022-12-31T07:49:25.338Z,19.15
2022-12-31T07:50:28.432Z,16.79
2022-12-31T07:51:31.166Z,18.94
2022-12-31T07:52:33.735Z,17.30
2022-12-31T07:53:36.564Z,21.41
2022-12-31T07:54:39.386Z,20.37
2022-12-31T07:55:41.949Z,21.47
2022-12-31T07:56:44.500Z,16.04
2022-12-31T07:57:47.081Z,18.97
2022-12-31T07:58:49.613Z,18.93
2022-12-31T07:59:52.194Z,20.18
2022-12-31T08:00:54.938Z,20.02
2022-12-31T08:01:57.598Z,13.96
2022-12-31T08:03:00.309Z,14.89
2022-12-31T08:04:02.899Z,21.48
2022-12-31T08:05:05.431Z,19.83
2022-12-31T08:06:08.711Z,23.04
2022-12-31T08:07:11.247Z,18.57
2022-12-31T08:08:13.821Z,18.90
2022-12-31T08:09:16.317Z,16.98
2022-12-31T08:10:19.312Z,19.02
2022-12-31T08:11:21.827Z,17.95
2022-12-31T08:12:24.369Z,17.56
2022-12-31T08:13:26.972Z,18.77
2022-12-31T08:14:29.478Z,18.43
2022-12-31T08:15:32.013Z,12.83
2022-12-31T08:16:34.675Z,15.69
2022-12-31T08:17:37.174Z,14.14
2022-12-31T08:18:39.754Z,14.07
2022-12-31T08:19:42.284Z,17.07
2022-12-31T08:20:45.027Z,16.52
2022-12-31T08:21:47.557Z,13.11
2022-12-31T08:22:50.098Z,18.55
2022-12-31T08:23:52.644Z,13.50
2022-12-31T08:24:55.191Z,16.70
2022-12-31T08:25:57.716Z,11.56
2022-12-31T08:27:00.346Z,15.39
2022-12-31T08:28:02.841Z,14.65
2022-12-31T08:29:05.671Z,15.91
2022-12-31T08:30:11.291Z,15.83
2022-12-31T08:31:17.601Z,19.86
2022-12-31T08:32:21.033Z,16.41
2022-12-31T08:33:23.615Z,13.09
2022-12-31T08:34:26.343Z,15.75
2022-12-31T08:35:28.860Z,20.22
2022-12-31T08:36:31.507Z,19.25
2022-12-31T08:37:34.050Z,14.26
2022-12-31T08:38:36.589Z,15.04
2022-12-31T08:39:39.331Z,13.25
2022-12-31T08:40:42.200Z,18.82
2022-12-31T08:41:44.938Z,14.55
2022-12-31T08:42:47.425Z,15.23
2022-12-31T08:43:49.976Z,12.98
2022-12-31T08:44:52.565Z,12.49
2022-12-31T08:45:55.128Z,12.39
2022-12-31T08:46:58.017Z,13.94
2022-12-31T08:48:00.575Z,12.34
2022-12-31T08:49:03.031Z,14.56
2022-12-31T08:50:05.919Z,14.58
2022-12-31T08:51:08.468Z,16.01
2022-12-31T08:52:11.015Z,11.00
2022-12-31T08:53:13.670Z,13.81
2022-12-31T08:54:16.199Z,14.57
2022-12-31T08:55:18.772Z,15.76
2022-12-31T08:56:21.609Z,15.72
2022-12-31T08:57:24.218Z,14.36
2022-12-31T08:58:26.723Z,11.85
2022-12-31T08:59:29.270Z,11.64
2022-12-31T09:00:31.968Z,15.45
2022-12-31T09:01:34.574Z,16.28
2022-12-31T09:02:37.361Z,20.01
2022-12-31T09:03:39.898Z,14.61
2022-12-31T09:04:42.453Z,14.29
2022-12-31T09:05:45.044Z,12.63
2022-12-31T09:06:47.691Z,14.65
2022-12-31T09:07:50.270Z,16.29
2022-12-31T09:08:52.751Z,9.91
2022-12-31T09:09:55.286Z,10.73
2022-12-31T09:10:58.122Z,6.22
2022-12-31T09:12:00.567Z,14.75
2022-12-31T09:13:03.109Z,11.63
2022-12-31T09:14:05.664Z,9.68
2022-12-31T09:15:08.230Z,13.95
2022-12-31T09:16:11.648Z,11.30
2022-12-31T09:17:14.493Z,12.58
2022-12-31T09:18:17.032Z,12.20
2022-12-31T09:19:19.569Z,10.79
2022-12-31T09:20:22.404Z,11.42
2022-12-31T09:21:25.099Z,14.89
2022-12-31T09:22:27.663Z,17.88
2022-12-31T09:23:30.207Z,16.23
2022-12-31T09:24:32.778Z,13.05
2022-12-31T09:25:35.323Z,14.78
2022-12-31T09:26:38.104Z,14.15
2022-12-31T09:27:40.650Z,13.59
2022-12-31T09:28:43.247Z,12.75
2022-12-31T09:29:45.751Z,15.52
2022-12-31T09:30:48.481Z,12.34
2022-12-31T09:31:51.251Z,13.03
2022-12-31T09:33:00.366Z,12.24
2022-12-31T09:33:58.367Z,16.34
2022-12-31T09:35:00.904Z,13.43
2022-12-31T09:36:03.684Z,14.99
2022-12-31T09:37:06.275Z,12.95
2022-12-31T09:38:11.600Z,14.97
2022-12-31T09:39:13.221Z,14.82
2022-12-31T09:40:16.159Z,8.94
2022-12-31T09:41:18.700Z,10.37
2022-12-31T09:42:21.616Z,13.13
2022-12-31T09:43:24.211Z,12.41
2022-12-31T09:44:27.030Z,13.68
2022-12-31T09:45:29.951Z,14.28
2022-12-31T09:46:32.444Z,15.89
2022-12-31T09:47:35.018Z,17.65
2022-12-31T09:48:37.539Z,15.13
2022-12-31T09:49:40.085Z,12.67
2022-12-31T09:50:42.821Z,14.66
2022-12-31T09:51:45.377Z,13.15
2022-12-31T09:52:47.993Z,10.67
2022-12-31T09:53:50.515Z,20.77
2022-12-31T09:54:53.053Z,15.45
2022-12-31T09:55:55.600Z,15.42
2022-12-31T09:56:59.292Z,13.47
2022-12-31T09:58:02.257Z,14.22
2022-12-31T09:59:04.777Z,13.09
2022-12-31T10:00:07.838Z,11.38
2022-12-31T10:01:10.425Z,11.53
2022-12-31T10:02:13.390Z,10.02
2022-12-31T10:03:16.170Z,14.89
2022-12-31T10:04:18.750Z,12.36
2022-12-31T10:05:21.303Z,15.13
2022-12-31T10:06:24.145Z,13.34
2022-12-31T10:07:26.721Z,15.60
2022-12-31T10:08:29.475Z,16.71
2022-12-31T10:09:32.054Z,13.08
2022-12-31T10:10:34.784Z,15.18
2022-12-31T10:11:37.327Z,13.60
2022-12-31T10:12:39.860Z,10.17
2022-12-31T10:13:42.871Z,11.48
2022-12-31T10:14:47.539Z,12.64
2022-12-31T10:15:49.770Z,15.88
2022-12-31T10:16:52.655Z,15.16
2022-12-31T10:17:55.357Z,15.19
2022-12-31T10:18:57.919Z,14.95
2022-12-31T10:20:00.449Z,12.94
2022-12-31T10:21:02.998Z,14.11
2022-12-31T10:22:05.552Z,11.35
2022-12-31T10:23:08.081Z,12.84
2022-12-31T10:24:10.587Z,13.32
2022-12-31T10:25:13.114Z,15.61
2022-12-31T10:26:15.761Z,18.06
2022-12-31T10:27:18.534Z,13.82
2022-12-31T10:28:22.472Z,10.81
2022-12-31T10:29:25.120Z,13.76
2022-12-31T10:30:27.983Z,15.33
2022-12-31T10:31:30.536Z,13.63
2022-12-31T10:32:33.076Z,14.71
2022-12-31T10:33:35.641Z,16.03
2022-12-31T10:34:38.227Z,13.70
2022-12-31T10:35:40.759Z,10.65
2022-12-31T10:36:43.392Z,13.07
2022-12-31T10:37:45.949Z,15.39
2022-12-31T10:38:48.476Z,15.60
2022-12-31T10:39:51.094Z,11.99
2022-12-31T10:40:53.763Z,14.12
2022-12-31T10:41:56.205Z,13.67
2022-12-31T10:42:58.868Z,15.12
2022-12-31T10:44:01.458Z,12.49
2022-12-31T10:45:04.209Z,15.92
2022-12-31T10:46:07.439Z,11.91
2022-12-31T10:47:09.954Z,19.63
2022-12-31T10:48:12.486Z,15.97
2022-12-31T10:49:15.091Z,14.12
2022-12-31T10:50:18.481Z,13.09
2022-12-31T10:51:21.109Z,6.83
2022-12-31T10:52:23.674Z,9.79
2022-12-31T10:53:26.305Z,11.09
2022-12-31T10:54:28.840Z,10.39
2022-12-31T10:55:31.312Z,12.81
2022-12-31T10:56:34.064Z,13.08
2022-12-31T10:57:36.597Z,11.39
2022-12-31T10:58:39.134Z,12.96
2022-12-31T10:59:41.756Z,15.19
2022-12-31T11:00:44.481Z,16.96
2022-12-31T11:01:47.085Z,17.89
2022-12-31T11:02:49.695Z,15.34
2022-12-31T11:03:52.493Z,19.14
2022-12-31T11:04:55.016Z,16.77
2022-12-31T11:05:57.596Z,34.13
2022-12-31T11:07:00.493Z,23.59
2022-12-31T11:08:02.925Z,14.55
2022-12-31T11:09:05.465Z,18.24
2022-12-31T11:10:08.343Z,15.40
2022-12-31T11:11:11.847Z,9.54
2022-12-31T11:12:14.378Z,15.97
2022-12-31T11:13:17.419Z,16.28
2022-12-31T11:14:19.971Z,10.06
2022-12-31T11:15:22.505Z,11.17
2022-12-31T11:16:25.410Z,12.58
2022-12-31T11:17:27.940Z,9.87
2022-12-31T11:18:30.521Z,14.24
2022-12-31T11:19:33.064Z,11.87
2022-12-31T11:20:35.817Z,9.68
2022-12-31T11:21:41.400Z,17.93
2022-12-31T11:22:42.778Z,19.63
2022-12-31T11:23:45.304Z,48.42
2022-12-31T11:24:47.840Z,15.59
2022-12-31T11:25:50.399Z,15.65
2022-12-31T11:26:53.084Z,11.71
2022-12-31T11:27:55.627Z,15.08
2022-12-31T11:28:58.171Z,11.75
2022-12-31T11:30:00.723Z,12.55
2022-12-31T11:31:03.628Z,12.47
2022-12-31T11:32:06.355Z,14.69
2022-12-31T11:33:08.888Z,16.31
2022-12-31T11:34:11.407Z,14.00
2022-12-31T11:35:13.986Z,17.31
2022-12-31T11:36:16.722Z,12.41
2022-12-31T11:37:19.294Z,21.42
2022-12-31T11:38:21.841Z,11.26
2022-12-31T11:39:30.810Z,13.96
2022-12-31T11:40:28.947Z,13.48
2022-12-31T11:41:31.448Z,18.49
2022-12-31T11:42:34.040Z,15.21
2022-12-31T11:43:36.878Z,16.26
2022-12-31T11:44:39.505Z,15.71
2022-12-31T11:45:46.975Z,15.65
2022-12-31T11:46:46.614Z,15.96
2022-12-31T11:48:28.042Z,18.36
2022-12-31T11:48:53.747Z,21.61
2022-12-31T11:49:56.276Z,18.26
2022-12-31T11:50:59.045Z,14.96
2022-12-31T11:52:01.582Z,9.13
2022-12-31T11:53:04.149Z,14.99
2022-12-31T11:54:06.779Z,14.93
2022-12-31T11:55:09.302Z,15.54
2022-12-31T11:56:12.369Z,14.77
2022-12-31T11:57:14.942Z,15.89
2022-12-31T11:58:17.510Z,11.76
2022-12-31T11:59:20.190Z,13.94
2022-12-31T12:00:23.038Z,15.41
2022-12-31T12:01:25.611Z,12.35
2022-12-31T12:02:28.480Z,14.98
2022-12-31T12:03:31.134Z,8.37
2022-12-31T12:04:33.710Z,13.98
2022-12-31T12:05:36.263Z,13.34
2022-12-31T12:06:39.023Z,12.26
2022-12-31T12:07:41.553Z,14.67
2022-12-31T12:08:44.133Z,19.81
2022-12-31T12:09:46.678Z,17.66
2022-12-31T12:10:49.414Z,14.89
2022-12-31T12:11:51.953Z,12.43
2022-12-31T12:12:54.490Z,14.39
2022-12-31T12:13:57.086Z,20.54
2022-12-31T12:14:59.664Z,23.25
2022-12-31T12:16:02.274Z,29.89
2022-12-31T12:17:05.730Z,29.11
2022-12-31T12:18:08.393Z,29.16
2022-12-31T12:19:10.976Z,49.64
2022-12-31T12:20:14.104Z,47.90
2022-12-31T12:21:16.709Z,48.84
2022-12-31T12:22:19.229Z,44.68
2022-12-31T12:23:21.676Z,38.41
2022-12-31T12:24:24.252Z,14.74
2022-12-31T12:25:26.790Z,17.77
2022-12-31T12:26:29.433Z,15.54
2022-12-31T12:27:31.962Z,18.64
2022-12-31T12:28:34.822Z,16.08
2022-12-31T12:29:38.096Z,17.23
2022-12-31T12:30:40.743Z,14.41
2022-12-31T12:31:43.318Z,10.67
2022-12-31T12:32:45.819Z,14.54
2022-12-31T12:33:48.601Z,13.57
2022-12-31T12:34:51.408Z,17.18
2022-12-31T12:35:53.971Z,13.09
2022-12-31T12:36:56.818Z,15.83
2022-12-31T12:37:59.357Z,14.72
2022-12-31T12:39:01.883Z,14.62
2022-12-31T12:40:04.906Z,14.83
2022-12-31T12:41:07.444Z,21.31
2022-12-31T12:42:09.982Z,25.35
2022-12-31T12:43:12.539Z,27.32
2022-12-31T12:44:15.072Z,26.60
2022-12-31T12:45:17.643Z,19.80
2022-12-31T12:46:20.593Z,27.24
2022-12-31T12:47:23.199Z,29.63
2022-12-31T12:48:25.805Z,20.45
2022-12-31T12:49:28.258Z,14.71
2022-12-31T12:50:30.876Z,15.70
2022-12-31T12:51:33.419Z,16.23
2022-12-31T12:52:36.302Z,13.32
2022-12-31T12:53:40.598Z,14.73
2022-12-31T12:54:43.145Z,15.79
2022-12-31T12:55:45.743Z,13.25
2022-12-31T12:56:48.396Z,22.29
2022-12-31T12:57:50.894Z,13.22
2022-12-31T12:58:53.463Z,17.79
2022-12-31T12:59:56.069Z,12.79
2022-12-31T13:00:58.874Z,16.67
2022-12-31T13:02:01.567Z,14.92
2022-12-31T13:03:04.217Z,16.60
2022-12-31T13:04:33.689Z,18.01
2022-12-31T13:05:11.319Z,14.35
2022-12-31T13:06:14.003Z,16.51
2022-12-31T13:07:16.536Z,16.01
2022-12-31T13:08:19.343Z,16.76
2022-12-31T13:09:21.919Z,18.98
2022-12-31T13:10:25.028Z,15.32
2022-12-31T13:11:27.636Z,24.40
2022-12-31T13:12:48.997Z,16.97
2022-12-31T13:13:34.489Z,18.51
2022-12-31T13:14:37.205Z,17.88
2022-12-31T13:15:39.680Z,17.00
2022-12-31T13:16:42.619Z,19.76
2022-12-31T13:17:49.793Z,17.61
2022-12-31T13:18:49.792Z,20.05
2022-12-31T13:19:52.355Z,18.06
2022-12-31T13:20:54.963Z,18.62
2022-12-31T13:21:57.460Z,14.56
2022-12-31T13:23:00.021Z,22.33
2022-12-31T13:24:02.574Z,24.52
2022-12-31T13:25:05.123Z,22.31
2022-12-31T13:26:08.077Z,23.99
2022-12-31T13:27:10.655Z,11.53
2022-12-31T13:28:13.195Z,18.79